sensor_id;sensor_type;location;lat;lon;timestamp;pressure;altitude;pressure_sealevel;temperature;humidity
46199;BME280;31928;52.104;10.030;2024-02-26T03:53:19;99190.66;;;6.49;53.41
46199;BME280;31928;52.104;10.030;2024-02-26T12:07:46;99472.53;;;12.14;49.50
46199;BME280;31928;52.104;10.030;2024-02-26T12:10:27;99479.06;;;12.18;49.81
46199;BME280;31928;52.104;10.030;2024-02-26T12:13:29;99476.28;;;12.29;49.81
46199;BME280;31928;52.104;10.030;2024-02-26T12:15:57;99472.38;;;12.20;49.37
46199;BME280;31928;52.104;10.030;2024-02-26T12:18:25;99475.16;;;12.25;49.16
46199;BME280;31928;52.104;10.030;2024-02-26T12:21:02;99473.69;;;12.34;49.71
46199;BME280;31928;52.104;10.030;2024-02-26T12:23:30;99481.16;;;12.32;49.31
46199;BME280;31928;52.104;10.030;2024-02-26T12:26:00;99480.78;;;12.40;48.69
46199;BME280;31928;52.104;10.030;2024-02-26T12:28:31;99478.09;;;12.40;48.98
46199;BME280;31928;52.104;10.030;2024-02-26T12:30:58;99483.53;;;12.45;48.78
46199;BME280;31928;52.104;10.030;2024-02-26T12:33:26;99488.97;;;12.50;48.84
46199;BME280;31928;52.104;10.030;2024-02-26T12:35:54;99479.38;;;12.54;49.04
46199;BME280;31928;52.104;10.030;2024-02-26T12:38:20;99484.31;;;12.62;49.00
46199;BME280;31928;52.104;10.030;2024-02-26T12:40:47;99479.25;;;12.65;48.83
46199;BME280;31928;52.104;10.030;2024-02-26T12:43:15;99486.34;;;12.71;49.10
46199;BME280;31928;52.104;10.030;2024-02-26T12:45:43;99480.44;;;12.74;48.64
46199;BME280;31928;52.104;10.030;2024-02-26T12:48:14;99491.88;;;12.81;48.44
46199;BME280;31928;52.104;10.030;2024-02-26T12:50:44;99492.50;;;12.88;48.93
46199;BME280;31928;52.104;10.030;2024-02-26T12:53:11;99493.34;;;12.89;48.78
46199;BME280;31928;52.104;10.030;2024-02-26T12:55:38;99491.78;;;12.93;49.25
46199;BME280;31928;52.104;10.030;2024-02-26T12:58:06;99491.03;;;12.97;48.98
46199;BME280;31928;52.104;10.030;2024-02-26T13:00:34;99495.41;;;13.03;49.03
46199;BME280;31928;52.104;10.030;2024-02-26T13:03:01;99500.88;;;13.08;49.01
46199;BME280;31928;52.104;10.030;2024-02-26T13:05:28;99504.44;;;13.14;47.84
46199;BME280;31928;52.104;10.030;2024-02-26T13:07:55;99505.56;;;13.18;47.87
46199;BME280;31928;52.104;10.030;2024-02-26T13:10:21;99516.13;;;13.45;48.58
46199;BME280;31928;52.104;10.030;2024-02-26T13:12:49;99524.53;;;13.27;48.04
46199;BME280;31928;52.104;10.030;2024-02-26T13:15:21;99528.84;;;13.28;48.12
46199;BME280;31928;52.104;10.030;2024-02-26T13:17:48;99532.09;;;13.30;48.49
46199;BME280;31928;52.104;10.030;2024-02-26T13:20:28;99529.53;;;13.40;48.97
46199;BME280;31928;52.104;10.030;2024-02-26T13:23:11;99534.41;;;13.43;48.59
46199;BME280;31928;52.104;10.030;2024-02-26T13:25:38;99538.34;;;13.36;48.67
46199;BME280;31928;52.104;10.030;2024-02-26T13:28:16;99537.63;;;13.40;48.69
46199;BME280;31928;52.104;10.030;2024-02-26T13:30:54;99539.25;;;13.41;49.01
46199;BME280;31928;52.104;10.030;2024-02-26T13:33:25;99532.69;;;13.32;48.84
46199;BME280;31928;52.104;10.030;2024-02-26T13:35:53;99536.44;;;13.31;48.57
46199;BME280;31928;52.104;10.030;2024-02-26T13:38:20;99543.91;;;13.29;48.71
46199;BME280;31928;52.104;10.030;2024-02-26T13:40:47;99547.69;;;13.28;48.52
46199;BME280;31928;52.104;10.030;2024-02-26T13:43:14;99546.53;;;13.24;48.34
46199;BME280;31928;52.104;10.030;2024-02-26T13:45:41;99547.44;;;13.51;48.76
46199;BME280;31928;52.104;10.030;2024-02-26T13:48:08;99535.78;;;13.24;48.24
46199;BME280;31928;52.104;10.030;2024-02-26T13:50:39;99546.50;;;13.20;48.04
46199;BME280;31928;52.104;10.030;2024-02-26T13:53:06;99550.50;;;13.17;48.35
46199;BME280;31928;52.104;10.030;2024-02-26T13:55:32;99549.69;;;13.17;48.65
46199;BME280;31928;52.104;10.030;2024-02-26T13:58:00;99556.63;;;13.13;48.14
46199;BME280;31928;52.104;10.030;2024-02-26T14:00:30;99557.69;;;13.12;48.25
46199;BME280;31928;52.104;10.030;2024-02-26T14:03:07;99566.00;;;13.10;48.19
46199;BME280;31928;52.104;10.030;2024-02-26T14:05:34;99563.56;;;13.09;48.28
46199;BME280;31928;52.104;10.030;2024-02-26T14:08:01;99568.94;;;13.09;48.09
46199;BME280;31928;52.104;10.030;2024-02-26T14:10:29;99564.88;;;13.06;48.34
46199;BME280;31928;52.104;10.030;2024-02-26T14:12:58;99564.06;;;13.06;48.30
46199;BME280;31928;52.104;10.030;2024-02-26T14:15:25;99568.88;;;13.04;48.28
46199;BME280;31928;52.104;10.030;2024-02-26T14:17:52;99571.00;;;13.02;48.42
46199;BME280;31928;52.104;10.030;2024-02-26T14:20:24;99575.81;;;13.00;48.79
46199;BME280;31928;52.104;10.030;2024-02-26T14:22:51;99577.94;;;12.98;48.47
46199;BME280;31928;52.104;10.030;2024-02-26T14:25:21;99574.44;;;12.97;49.07
46199;BME280;31928;52.104;10.030;2024-02-26T14:27:48;99580.06;;;12.96;48.14
46199;BME280;31928;52.104;10.030;2024-02-26T14:30:15;99579.94;;;13.23;48.46
46199;BME280;31928;52.104;10.030;2024-02-26T14:32:44;99576.31;;;12.97;48.53
46199;BME280;31928;52.104;10.030;2024-02-26T14:35:11;99587.53;;;12.94;48.58
46199;BME280;31928;52.104;10.030;2024-02-26T14:37:43;99584.56;;;12.90;48.52
46199;BME280;31928;52.104;10.030;2024-02-26T14:40:14;99594.72;;;12.88;48.80
46199;BME280;31928;52.104;10.030;2024-02-26T14:42:42;99599.31;;;12.88;48.66
46199;BME280;31928;52.104;10.030;2024-02-26T14:45:09;99601.41;;;12.86;48.99
46199;BME280;31928;52.104;10.030;2024-02-26T14:47:36;99601.41;;;12.86;48.81
46199;BME280;31928;52.104;10.030;2024-02-26T14:50:03;99610.50;;;12.85;48.79
46199;BME280;31928;52.104;10.030;2024-02-26T14:52:31;99610.50;;;12.85;48.66
46199;BME280;31928;52.104;10.030;2024-02-26T14:54:58;99608.91;;;12.84;48.82
46199;BME280;31928;52.104;10.030;2024-02-26T14:57:24;99613.19;;;12.85;48.84
46199;BME280;31928;52.104;10.030;2024-02-26T14:59:51;99608.06;;;12.83;48.98
46199;BME280;31928;52.104;10.030;2024-02-26T15:02:18;99622.13;;;12.85;48.87
46199;BME280;31928;52.104;10.030;2024-02-26T15:04:45;99636.84;;;12.83;49.36
46199;BME280;31928;52.104;10.030;2024-02-26T15:07:13;99631.47;;;12.83;48.88
46199;BME280;31928;52.104;10.030;2024-02-26T15:09:42;99632.03;;;12.85;49.44
46199;BME280;31928;52.104;10.030;2024-02-26T15:12:09;99630.91;;;13.14;49.08
46199;BME280;31928;52.104;10.030;2024-02-26T15:14:37;99646.44;;;12.90;48.69
46199;BME280;31928;52.104;10.030;2024-02-26T15:17:04;99644.91;;;13.16;48.83
46199;BME280;31928;52.104;10.030;2024-02-26T15:19:31;99647.81;;;12.93;49.36
46199;BME280;31928;52.104;10.030;2024-02-26T15:21:58;99658.50;;;12.88;49.06
46199;BME280;31928;52.104;10.030;2024-02-26T15:24:24;99655.69;;;13.16;48.92
46199;BME280;31928;52.104;10.030;2024-02-26T15:26:51;99656.34;;;12.90;49.08
46199;BME280;31928;52.104;10.030;2024-02-26T15:29:17;99650.97;;;12.90;49.34
46199;BME280;31928;52.104;10.030;2024-02-26T15:31:44;99653.13;;;12.88;49.06
46199;BME280;31928;52.104;10.030;2024-02-26T15:34:11;99649.84;;;12.86;49.09
46199;BME280;31928;52.104;10.030;2024-02-26T15:36:38;99651.09;;;12.83;49.08
46199;BME280;31928;52.104;10.030;2024-02-26T15:39:07;99654.06;;;12.82;49.32
46199;BME280;31928;52.104;10.030;2024-02-26T15:41:34;99655.94;;;12.81;49.53
46199;BME280;31928;52.104;10.030;2024-02-26T15:44:00;99657.78;;;12.81;49.20
46199;BME280;31928;52.104;10.030;2024-02-26T15:46:27;99661.31;;;12.81;49.54
46199;BME280;31928;52.104;10.030;2024-02-26T15:48:55;99670.69;;;12.79;49.57
46199;BME280;31928;52.104;10.030;2024-02-26T15:51:22;99670.94;;;12.77;49.57
46199;BME280;31928;52.104;10.030;2024-02-26T15:53:53;99681.94;;;12.76;49.58
46199;BME280;31928;52.104;10.030;2024-02-26T15:56:20;99684.03;;;12.74;49.62
46199;BME280;31928;52.104;10.030;2024-02-26T15:58:51;99679.72;;;12.73;49.43
46199;BME280;31928;52.104;10.030;2024-02-26T16:01:19;99688.84;;;12.72;49.95
46199;BME280;31928;52.104;10.030;2024-02-26T16:03:51;99699.59;;;12.72;50.08
46199;BME280;31928;52.104;10.030;2024-02-26T16:06:29;99710.94;;;12.74;49.63
46199;BME280;31928;52.104;10.030;2024-02-26T16:08:56;99703.63;;;12.69;49.79
46199;BME280;31928;52.104;10.030;2024-02-26T16:11:23;99712.16;;;12.66;49.42
46199;BME280;31928;52.104;10.030;2024-02-26T16:13:50;99718.31;;;12.95;48.93
46199;BME280;31928;52.104;10.030;2024-02-26T16:16:23;99729.19;;;12.72;49.83
46199;BME280;31928;52.104;10.030;2024-02-26T16:19:01;99728.63;;;12.70;50.18
46199;BME280;31928;52.104;10.030;2024-02-26T16:21:31;99736.00;;;12.63;50.04
46199;BME280;31928;52.104;10.030;2024-02-26T16:23:58;99743.75;;;12.59;50.29
46199;BME280;31928;52.104;10.030;2024-02-26T16:26:25;99734.06;;;12.58;50.54
46199;BME280;31928;52.104;10.030;2024-02-26T16:28:52;99739.44;;;12.58;50.44
46199;BME280;31928;52.104;10.030;2024-02-26T16:31:19;99743.75;;;12.59;50.25
46199;BME280;31928;52.104;10.030;2024-02-26T16:33:45;99742.38;;;12.57;50.60
46199;BME280;31928;52.104;10.030;2024-02-26T16:36:12;99746.09;;;12.56;50.45
46199;BME280;31928;52.104;10.030;2024-02-26T16:38:39;99749.59;;;12.84;49.66
46199;BME280;31928;52.104;10.030;2024-02-26T16:41:06;99759.06;;;12.59;50.70
46199;BME280;31928;52.104;10.030;2024-02-26T16:43:32;99753.59;;;12.54;50.83
46199;BME280;31928;52.104;10.030;2024-02-26T16:46:01;99756.75;;;12.51;50.62
46199;BME280;31928;52.104;10.030;2024-02-26T16:48:34;99757.34;;;12.53;50.88
46199;BME280;31928;52.104;10.030;2024-02-26T16:51:02;99757.72;;;12.45;50.94
46199;BME280;31928;52.104;10.030;2024-02-26T16:53:29;99757.16;;;12.43;51.10
46199;BME280;31928;52.104;10.030;2024-02-26T16:55:56;99761.94;;;12.41;51.01
46199;BME280;31928;52.104;10.030;2024-02-26T16:58:24;99763.47;;;12.37;50.96
46199;BME280;31928;52.104;10.030;2024-02-26T17:00:51;99767.22;;;12.36;51.20
46199;BME280;31928;52.104;10.030;2024-02-26T17:03:18;99765.00;;;12.33;51.10
46199;BME280;31928;52.104;10.030;2024-02-26T17:05:44;99773.66;;;12.63;50.14
46199;BME280;31928;52.104;10.030;2024-02-26T17:08:11;99783.81;;;12.33;51.31
46199;BME280;31928;52.104;10.030;2024-02-26T17:10:38;99778.72;;;12.59;50.17
46199;BME280;31928;52.104;10.030;2024-02-26T17:13:05;99777.28;;;12.29;51.05
46199;BME280;31928;52.104;10.030;2024-02-26T17:15:31;99789.59;;;12.53;49.93
46199;BME280;31928;52.104;10.030;2024-02-26T17:17:58;99795.97;;;12.24;51.35
46199;BME280;31928;52.104;10.030;2024-02-26T17:20:25;99797.75;;;12.19;50.97
46199;BME280;31928;52.104;10.030;2024-02-26T17:22:52;99810.84;;;12.15;51.47
46199;BME280;31928;52.104;10.030;2024-02-26T17:25:18;99808.63;;;12.12;51.21
46199;BME280;31928;52.104;10.030;2024-02-26T17:27:45;99819.28;;;12.07;51.32
46199;BME280;31928;52.104;10.030;2024-02-26T17:30:12;99817.63;;;12.06;51.21
46199;BME280;31928;52.104;10.030;2024-02-26T17:32:39;99829.50;;;12.33;50.11
46199;BME280;31928;52.104;10.030;2024-02-26T17:35:06;99831.06;;;12.06;51.15
46199;BME280;31928;52.104;10.030;2024-02-26T17:37:33;99840.66;;;12.02;51.58
46199;BME280;31928;52.104;10.030;2024-02-26T17:40:00;99841.78;;;12.29;50.10
46199;BME280;31928;52.104;10.030;2024-02-26T17:42:26;99852.47;;;12.01;51.38
46199;BME280;31928;52.104;10.030;2024-02-26T17:44:53;99850.22;;;11.98;51.71
46199;BME280;31928;52.104;10.030;2024-02-26T17:47:20;99857.72;;;11.97;51.79
46199;BME280;31928;52.104;10.030;2024-02-26T17:49:46;99861.44;;;11.96;51.61
46199;BME280;31928;52.104;10.030;2024-02-26T17:52:13;99857.22;;;12.22;50.36
46199;BME280;31928;52.104;10.030;2024-02-26T17:54:40;99873.84;;;11.97;51.71
46199;BME280;31928;52.104;10.030;2024-02-26T17:57:06;99874.28;;;11.94;51.39
46199;BME280;31928;52.104;10.030;2024-02-26T17:59:33;99872.66;;;11.93;51.50
46199;BME280;31928;52.104;10.030;2024-02-26T18:02:00;99883.63;;;11.91;51.58
46199;BME280;31928;52.104;10.030;2024-02-26T18:04:27;99883.88;;;11.90;51.58
46199;BME280;31928;52.104;10.030;2024-02-26T18:06:53;99888.31;;;12.18;50.77
46199;BME280;31928;52.104;10.030;2024-02-26T18:09:20;99890.88;;;11.91;51.79
46199;BME280;31928;52.104;10.030;2024-02-26T18:11:47;99894.03;;;11.88;51.48
46199;BME280;31928;52.104;10.030;2024-02-26T18:14:14;99888.06;;;11.86;51.91
46199;BME280;31928;52.104;10.030;2024-02-26T18:16:41;99892.63;;;11.85;51.65
46199;BME280;31928;52.104;10.030;2024-02-26T18:19:07;99892.88;;;11.84;51.65
46199;BME280;31928;52.104;10.030;2024-02-26T18:21:34;99893.31;;;11.81;51.75
46199;BME280;31928;52.104;10.030;2024-02-26T18:24:01;99898.91;;;11.79;51.94
46199;BME280;31928;52.104;10.030;2024-02-26T18:26:28;99896.47;;;11.78;52.04
46199;BME280;31928;52.104;10.030;2024-02-26T18:28:55;99901.75;;;12.07;50.59
46199;BME280;31928;52.104;10.030;2024-02-26T18:31:21;99910.50;;;11.80;51.46
46199;BME280;31928;52.104;10.030;2024-02-26T18:33:48;99904.44;;;12.07;50.58
46199;BME280;31928;52.104;10.030;2024-02-26T18:36:15;99914.00;;;11.80;51.69
46199;BME280;31928;52.104;10.030;2024-02-26T18:38:44;99913.06;;;11.75;51.38
46199;BME280;31928;52.104;10.030;2024-02-26T18:41:21;99918.31;;;11.81;51.54
46199;BME280;31928;52.104;10.030;2024-02-26T18:43:50;99916.19;;;11.72;51.63
46199;BME280;31928;52.104;10.030;2024-02-26T18:46:17;99919.34;;;11.69;51.58
46199;BME280;31928;52.104;10.030;2024-02-26T18:48:43;99925.44;;;11.98;50.78
46199;BME280;31928;52.104;10.030;2024-02-26T18:51:11;99937.44;;;11.73;51.17
46199;BME280;31928;52.104;10.030;2024-02-26T18:53:39;99929.03;;;11.70;51.39
46199;BME280;31928;52.104;10.030;2024-02-26T18:56:08;99932.16;;;11.67;51.61
46199;BME280;31928;52.104;10.030;2024-02-26T18:58:35;99946.66;;;11.66;51.35
46199;BME280;31928;52.104;10.030;2024-02-26T19:01:02;99943.38;;;11.64;51.28
46199;BME280;31928;52.104;10.030;2024-02-26T19:03:29;99939.03;;;11.63;51.36
46199;BME280;31928;52.104;10.030;2024-02-26T19:05:57;99955.38;;;11.61;50.94
46199;BME280;31928;52.104;10.030;2024-02-26T19:08:25;99955.38;;;11.61;51.19
46199;BME280;31928;52.104;10.030;2024-02-26T19:10:52;99956.66;;;11.59;50.66
46199;BME280;31928;52.104;10.030;2024-02-26T19:13:19;99969.28;;;11.58;50.85
46199;BME280;31928;52.104;10.030;2024-02-26T19:15:46;99968.25;;;11.59;50.87
46199;BME280;31928;52.104;10.030;2024-02-26T19:18:13;99987.22;;;11.58;50.58
46199;BME280;31928;52.104;10.030;2024-02-26T19:20:39;99980.25;;;11.57;50.52
46199;BME280;31928;52.104;10.030;2024-02-26T19:23:06;99986.63;;;11.85;50.05
46199;BME280;31928;52.104;10.030;2024-02-26T19:25:33;99987.22;;;11.58;50.40
46199;BME280;31928;52.104;10.030;2024-02-26T19:28:00;99998.44;;;11.55;50.44
46199;BME280;31928;52.104;10.030;2024-02-26T19:30:26;99996.00;;;11.53;50.25
46199;BME280;31928;52.104;10.030;2024-02-26T19:32:53;100003.41;;;11.81;49.84
46199;BME280;31928;52.104;10.030;2024-02-26T19:35:20;100012.91;;;11.54;50.05
46199;BME280;31928;52.104;10.030;2024-02-26T19:37:46;100010.91;;;11.79;49.84
46199;BME280;31928;52.104;10.030;2024-02-26T19:40:13;100015.00;;;11.52;50.38
46199;BME280;31928;52.104;10.030;2024-02-26T19:42:40;100014.03;;;11.46;50.29
46199;BME280;31928;52.104;10.030;2024-02-26T19:45:07;100027.66;;;11.45;49.97
46199;BME280;31928;52.104;10.030;2024-02-26T19:47:35;100022.75;;;11.42;50.21
46199;BME280;31928;52.104;10.030;2024-02-26T19:50:08;100031.63;;;11.42;50.34
46199;BME280;31928;52.104;10.030;2024-02-26T19:52:35;100036.63;;;11.39;50.33
46199;BME280;31928;52.104;10.030;2024-02-26T19:55:02;100038.28;;;11.40;50.28
46199;BME280;31928;52.104;10.030;2024-02-26T19:57:30;100038.28;;;11.40;50.36
46199;BME280;31928;52.104;10.030;2024-02-26T19:59:57;100042.81;;;11.39;49.88
46199;BME280;31928;52.104;10.030;2024-02-26T20:02:24;100042.00;;;11.39;49.86
46199;BME280;31928;52.104;10.030;2024-02-26T20:04:50;100052.78;;;11.68;49.65
46199;BME280;31928;52.104;10.030;2024-02-26T20:07:18;100048.53;;;11.43;49.92
46199;BME280;31928;52.104;10.030;2024-02-26T20:09:47;100047.34;;;11.39;50.26
46199;BME280;31928;52.104;10.030;2024-02-26T20:12:14;100051.09;;;11.38;50.23
46199;BME280;31928;52.104;10.030;2024-02-26T20:14:42;100056.69;;;11.37;49.85
46199;BME280;31928;52.104;10.030;2024-02-26T20:17:09;100055.84;;;11.36;49.80
46199;BME280;31928;52.104;10.030;2024-02-26T20:19:37;100059.59;;;11.35;49.97
46199;BME280;31928;52.104;10.030;2024-02-26T20:22:03;100063.63;;;11.62;49.51
46199;BME280;31928;52.104;10.030;2024-02-26T20:24:30;100067.41;;;11.37;49.80
46199;BME280;31928;52.104;10.030;2024-02-26T20:26:57;100071.66;;;11.62;49.69
46199;BME280;31928;52.104;10.030;2024-02-26T20:29:23;100074.63;;;11.36;49.92
46199;BME280;31928;52.104;10.030;2024-02-26T20:31:50;100079.94;;;11.60;49.76
46199;BME280;31928;52.104;10.030;2024-02-26T20:34:18;100096.31;;;11.35;49.88
46199;BME280;31928;52.104;10.030;2024-02-26T20:36:45;100088.34;;;11.28;49.71
46199;BME280;31928;52.104;10.030;2024-02-26T20:39:11;100086.75;;;11.27;49.81
46199;BME280;31928;52.104;10.030;2024-02-26T20:41:38;100079.72;;;11.26;50.07
46199;BME280;31928;52.104;10.030;2024-02-26T20:44:06;100090.88;;;11.23;50.00
46199;BME280;31928;52.104;10.030;2024-02-26T20:46:32;100098.47;;;11.50;49.79
46199;BME280;31928;52.104;10.030;2024-02-26T20:48:59;100110.28;;;11.25;49.91
46199;BME280;31928;52.104;10.030;2024-02-26T20:51:26;100109.09;;;11.21;50.13
46199;BME280;31928;52.104;10.030;2024-02-26T20:53:55;100112.81;;;11.20;50.48
46199;BME280;31928;52.104;10.030;2024-02-26T20:56:23;100111.38;;;11.18;50.23
46199;BME280;31928;52.104;10.030;2024-02-26T20:58:50;100116.97;;;11.16;50.38
46199;BME280;31928;52.104;10.030;2024-02-26T21:01:17;100120.47;;;11.17;50.27
46199;BME280;31928;52.104;10.030;2024-02-26T21:03:44;100124.41;;;11.14;50.25
46199;BME280;31928;52.104;10.030;2024-02-26T21:06:10;100140.59;;;11.43;49.88
46199;BME280;31928;52.104;10.030;2024-02-26T21:08:37;100138.44;;;11.16;50.38
46199;BME280;31928;52.104;10.030;2024-02-26T21:11:04;100152.88;;;11.15;50.28
46199;BME280;31928;52.104;10.030;2024-02-26T21:13:32;100164.06;;;11.12;50.52
46199;BME280;31928;52.104;10.030;2024-02-26T21:16:00;100151.81;;;11.40;50.18
46199;BME280;31928;52.104;10.030;2024-02-26T21:18:27;100162.81;;;11.15;50.29
46199;BME280;31928;52.104;10.030;2024-02-26T21:20:54;100164.06;;;11.12;50.75
46199;BME280;31928;52.104;10.030;2024-02-26T21:23:24;100159.97;;;11.10;50.55
46199;BME280;31928;52.104;10.030;2024-02-26T21:25:51;100168.25;;;11.08;50.82
46199;BME280;31928;52.104;10.030;2024-02-26T21:28:17;100169.91;;;11.09;50.71
46199;BME280;31928;52.104;10.030;2024-02-26T21:30:45;100174.41;;;11.09;50.86
46199;BME280;31928;52.104;10.030;2024-02-26T21:33:12;100175.69;;;11.06;50.81
46199;BME280;31928;52.104;10.030;2024-02-26T21:35:39;100188.06;;;11.07;51.06
46199;BME280;31928;52.104;10.030;2024-02-26T21:38:07;100188.28;;;11.06;50.82
46199;BME280;31928;52.104;10.030;2024-02-26T21:40:35;100193.03;;;11.04;51.14
46199;BME280;31928;52.104;10.030;2024-02-26T21:43:02;100201.84;;;11.35;50.11
46199;BME280;31928;52.104;10.030;2024-02-26T21:45:30;100196.72;;;11.09;50.72
46199;BME280;31928;52.104;10.030;2024-02-26T21:47:57;100204.38;;;11.06;50.94
46199;BME280;31928;52.104;10.030;2024-02-26T21:50:24;100194.69;;;11.05;50.89
46199;BME280;31928;52.104;10.030;2024-02-26T21:52:50;100208.47;;;11.33;50.29
46199;BME280;31928;52.104;10.030;2024-02-26T21:55:17;100203.53;;;11.05;51.11
46199;BME280;31928;52.104;10.030;2024-02-26T21:57:46;100203.97;;;11.02;51.15
46199;BME280;31928;52.104;10.030;2024-02-26T22:00:12;100202.72;;;11.29;50.46
46199;BME280;31928;52.104;10.030;2024-02-26T22:02:39;100213.69;;;11.03;51.21
46199;BME280;31928;52.104;10.030;2024-02-26T22:05:06;100213.28;;;11.00;51.18
46199;BME280;31928;52.104;10.030;2024-02-26T22:07:33;100219.91;;;10.97;51.30
46199;BME280;31928;52.104;10.030;2024-02-26T22:10:00;100222.97;;;11.25;50.46
46199;BME280;31928;52.104;10.030;2024-02-26T22:12:27;100224.25;;;10.98;51.33
46199;BME280;31928;52.104;10.030;2024-02-26T22:14:53;100232.06;;;11.24;50.19
46199;BME280;31928;52.104;10.030;2024-02-26T22:17:20;100232.75;;;10.95;51.42
46199;BME280;31928;52.104;10.030;2024-02-26T22:19:47;100230.69;;;10.91;51.84
46199;BME280;31928;52.104;10.030;2024-02-26T22:22:14;100237.31;;;10.88;52.02
46199;BME280;31928;52.104;10.030;2024-02-26T22:24:41;100245.59;;;10.87;52.00
46199;BME280;31928;52.104;10.030;2024-02-26T22:27:07;100240.66;;;10.84;51.98
46199;BME280;31928;52.104;10.030;2024-02-26T22:29:34;100240.03;;;10.82;52.27
46199;BME280;31928;52.104;10.030;2024-02-26T22:32:01;100249.97;;;10.81;52.31
46199;BME280;31928;52.104;10.030;2024-02-26T22:34:27;100242.34;;;10.78;52.37
46199;BME280;31928;52.104;10.030;2024-02-26T22:36:55;100246.28;;;10.76;52.60
46199;BME280;31928;52.104;10.030;2024-02-26T22:39:22;100253.50;;;10.76;52.55
46199;BME280;31928;52.104;10.030;2024-02-26T22:41:49;100243.41;;;11.02;51.08
46199;BME280;31928;52.104;10.030;2024-02-26T22:44:16;100248.13;;;10.76;52.49
46199;BME280;31928;52.104;10.030;2024-02-26T22:46:43;100252.28;;;10.72;52.71
46199;BME280;31928;52.104;10.030;2024-02-26T22:49:09;100248.38;;;10.98;51.13
46199;BME280;31928;52.104;10.030;2024-02-26T22:51:36;100260.09;;;10.73;52.33
46199;BME280;31928;52.104;10.030;2024-02-26T22:54:03;100259.34;;;10.66;52.70
46199;BME280;31928;52.104;10.030;2024-02-26T22:56:30;100262.25;;;10.65;52.87
46199;BME280;31928;52.104;10.030;2024-02-26T22:58:57;100270.50;;;10.63;53.01
46199;BME280;31928;52.104;10.030;2024-02-26T23:01:23;100271.53;;;10.62;53.01
46199;BME280;31928;52.104;10.030;2024-02-26T23:03:51;100279.19;;;10.59;53.00
46199;BME280;31928;52.104;10.030;2024-02-26T23:06:18;100282.88;;;10.58;53.00
46199;BME280;31928;52.104;10.030;2024-02-26T23:08:44;100287.66;;;10.56;53.01
46199;BME280;31928;52.104;10.030;2024-02-26T23:11:11;100294.06;;;10.55;53.17
46199;BME280;31928;52.104;10.030;2024-02-26T23:13:38;100306.28;;;10.81;51.73
46199;BME280;31928;52.104;10.030;2024-02-26T23:16:05;100309.69;;;10.58;53.04
46199;BME280;31928;52.104;10.030;2024-02-26T23:18:32;100308.47;;;10.54;53.16
46199;BME280;31928;52.104;10.030;2024-02-26T23:20:59;100316.97;;;10.51;53.26
46199;BME280;31928;52.104;10.030;2024-02-26T23:23:26;100314.72;;;10.48;53.37
46199;BME280;31928;52.104;10.030;2024-02-26T23:25:52;100312.03;;;10.48;53.17
46199;BME280;31928;52.104;10.030;2024-02-26T23:28:19;100315.75;;;10.47;53.37
46199;BME280;31928;52.104;10.030;2024-02-26T23:30:46;100319.66;;;10.44;53.54
46199;BME280;31928;52.104;10.030;2024-02-26T23:33:12;100321.72;;;10.42;53.43
46199;BME280;31928;52.104;10.030;2024-02-26T23:35:39;100324.63;;;10.41;53.72
46199;BME280;31928;52.104;10.030;2024-02-26T23:38:06;100328.34;;;10.40;53.75
46199;BME280;31928;52.104;10.030;2024-02-26T23:40:33;100329.41;;;10.39;53.59
46199;BME280;31928;52.104;10.030;2024-02-26T23:43:00;100334.13;;;10.37;53.71
46199;BME280;31928;52.104;10.030;2024-02-26T23:45:28;100330.00;;;10.34;53.64
46199;BME280;31928;52.104;10.030;2024-02-26T23:47:55;100345.28;;;10.34;53.54
46199;BME280;31928;52.104;10.030;2024-02-26T23:50:22;100345.69;;;10.31;53.84
46199;BME280;31928;52.104;10.030;2024-02-26T23:52:50;100347.75;;;10.29;53.87
46199;BME280;31928;52.104;10.030;2024-02-26T23:55:18;100349.81;;;10.27;53.83
46199;BME280;31928;52.104;10.030;2024-02-26T23:57:46;100358.91;;;10.26;53.93
